Time;durP1;ratioP1;P1;durP2;ratioP2;P2;SDS_P1;SDS_P2;PMS_P1;PMS_P2;Temp;Humidity;BMP_temperature;BMP_pressure;BME280_temperature;BME280_humidity;BME280_pressure;Samples;Min_cycle;Max_cycle;Signal;HPM_P1;HPM_P2
2023/04/12 00:01:30;;;;;;;10.15;3.47;;;;;;;6.88;38.71;94786.53;5039575;28;20044;-64
2023/04/12 00:03:56;;;;;;;7.90;4.15;;;;;;;6.49;39.50;94784.78;5037847;28;20068;-63
2023/04/12 00:06:31;;;;;;;13.68;7.78;;;;;;;6.75;39.81;94779.22;5040026;28;20420;-63
2023/04/12 00:08:57;;;;;;;13.85;7.80;;;;;;;6.36;39.49;94770.28;5040444;28;20035;-64
2023/04/12 00:11:24;;;;;;;14.70;8.27;;;;;;;6.21;40.28;94764.88;5039840;28;20068;-63
2023/04/12 00:13:49;;;;;;;12.95;8.60;;;;;;;6.55;39.80;94764.75;5038814;28;20053;-63
2023/04/12 00:16:17;;;;;;;8.68;3.33;;;;;;;6.33;40.58;94756.59;5039819;28;20036;-64
2023/04/12 00:18:44;;;;;;;13.88;8.30;;;;;;;6.06;41.60;94745.47;5039953;28;20068;-63
2023/04/12 00:21:10;;;;;;;10.82;4.93;;;;;;;6.20;39.94;94749.19;5040091;28;20037;-63
2023/04/12 00:23:36;;;;;;;11.10;3.05;;;;;;;5.10;42.97;94752.22;5039330;28;20577;-64
2023/04/12 00:26:03;;;;;;;11.43;6.00;;;;;;;6.08;41.18;94748.72;5038194;28;20036;-64
2023/04/12 00:28:28;;;;;;;7.47;3.00;;;;;;;6.47;39.55;94745.25;5038463;28;20033;-63
2023/04/12 00:30:54;;;;;;;6.65;2.15;;;;;;;6.38;39.95;94741.00;5039992;28;20041;-63
2023/04/12 00:33:19;;;;;;;8.45;2.00;;;;;;;5.51;41.65;94737.34;5039558;28;20094;-64
2023/04/12 00:35:45;;;;;;;9.88;3.30;;;;;;;5.98;41.53;94738.38;5039722;28;20033;-64
2023/04/12 00:38:10;;;;;;;13.20;6.53;;;;;;;6.25;41.30;94723.06;5039713;28;20049;-64
2023/04/12 00:40:39;;;;;;;9.57;4.50;;;;;;;6.71;40.56;94714.41;5039417;28;20052;-64
2023/04/12 00:43:05;;;;;;;12.18;7.63;;;;;;;6.47;41.54;94723.28;5039437;28;20413;-64
2023/04/12 00:45:30;;;;;;;11.73;2.47;;;;;;;4.51;45.55;94732.84;5038537;28;20036;-63
2023/04/12 00:47:56;;;;;;;7.82;3.30;;;;;;;5.59;44.26;94717.03;5036927;28;20038;-64
2023/04/12 00:50:22;;;;;;;12.75;5.05;;;;;;;5.05;45.62;94725.47;5037878;28;20513;-63
2023/04/12 00:52:48;;;;;;;8.00;1.98;;;;;;;4.90;46.68;94720.03;5039689;28;20482;-64
2023/04/12 00:55:14;;;;;;;8.05;2.08;;;;;;;5.00;46.51;94722.53;5036641;28;20087;-64
2023/04/12 00:57:40;;;;;;;9.40;4.20;;;;;;;4.56;47.87;94720.00;5038031;28;20263;-64
2023/04/12 01:00:11;;;;;;;9.40;2.55;;;;;;;5.32;46.17;94705.88;5038405;28;20036;-64
2023/04/12 01:02:41;;;;;;;10.82;2.90;;;;;;;5.60;45.38;94699.38;5009433;23;20041;-93
2023/04/12 01:05:13;;;;;;;4.95;1.98;;;;;;;3.22;52.46;94706.41;5003152;28;20042;-93
2023/04/12 01:07:46;;;;;;;11.07;5.68;;;;;;;5.00;48.11;94693.50;5003484;28;20044;-94
2023/04/12 01:10:39;;;;;;;7.13;2.67;;;;;;;4.81;48.82;94698.09;5002258;28;20075;-95
2023/04/12 01:13:08;;;;;;;6.13;2.13;;;;;;;5.20;47.82;94679.00;5036528;28;20025;-94
2023/04/12 01:15:36;;;;;;;8.88;2.58;;;;;;;4.87;49.17;94671.09;5019623;28;20398;-94
2023/04/12 01:18:08;;;;;;;6.25;3.20;;;;;;;3.92;51.46;94665.19;5002818;28;20441;-96
2023/04/12 01:20:44;;;;;;;6.13;2.22;;;;;;;4.30;51.26;94670.03;5003376;28;20045;-94
2023/04/12 01:23:33;;;;;;;10.38;4.70;;;;;;;5.30;48.09;94659.50;4987372;28;20041;-95
2023/04/12 01:26:31;;;;;;;4.93;1.98;;;;;;;5.58;47.99;94648.56;5018712;28;20079;-95
2023/04/12 01:29:02;;;;;;;9.50;4.35;;;;;;;5.50;47.87;94652.03;5036188;28;20332;-95
2023/04/12 01:31:38;;;;;;;6.80;2.78;;;;;;;5.38;48.25;94648.94;5030272;28;20037;-95
2023/04/12 01:34:04;;;;;;;6.55;2.00;;;;;;;4.29;51.67;94658.66;4990806;28;20045;-95
2023/04/12 01:36:29;;;;;;;5.50;2.00;;;;;;;4.63;50.39;94648.16;4989758;28;20029;-94
2023/04/12 01:38:55;;;;;;;6.40;2.78;;;;;;;5.34;48.82;94631.81;5009279;28;20143;-93
2023/04/12 01:41:21;;;;;;;8.55;4.68;;;;;;;5.61;48.22;94627.06;5008255;28;20044;-94
2023/04/12 01:43:46;;;;;;;9.63;3.97;;;;;;;5.71;47.58;94626.84;4993146;28;20482;-95
2023/04/12 01:46:15;;;;;;;9.35;5.22;;;;;;;5.31;48.50;94622.38;5004904;28;20037;-95
2023/04/12 01:48:51;;;;;;;13.02;3.85;;;;;;;5.52;48.54;94614.91;5012372;28;20423;-94
2023/04/12 01:51:18;;;;;;;8.63;3.75;;;;;;;5.78;47.74;94604.06;5005327;28;20033;-95
2023/04/12 01:53:56;;;;;;;5.30;2.40;;;;;;;5.80;47.79;94606.53;5006084;28;20042;-94
2023/04/12 01:56:22;;;;;;;10.88;5.38;;;;;;;5.88;46.52;94600.38;5006939;28;20394;-94
2023/04/12 01:58:47;;;;;;;9.32;4.93;;;;;;;5.53;47.16;94598.06;4990085;28;20029;-94
2023/04/12 02:01:14;;;;;;;6.75;2.20;;;;;;;5.17;50.03;94580.88;5002922;28;20136;-95
2023/04/12 02:03:42;;;;;;;7.57;3.47;;;;;;;5.01;49.87;94584.34;4986678;28;20108;-94
2023/04/12 02:06:09;;;;;;;8.82;3.22;;;;;;;5.45;49.79;94591.81;4980381;28;20612;-94
2023/04/12 02:08:37;;;;;;;11.23;4.28;;;;;;;5.56;48.57;94590.63;5031333;28;20065;-94
2023/04/12 02:11:16;;;;;;;7.80;2.70;;;;;;;5.76;48.28;94586.72;5034703;28;20030;-95
2023/04/12 02:13:45;;;;;;;9.30;3.88;;;;;;;5.61;47.92;94575.09;5042701;28;20056;-94
2023/04/12 02:16:13;;;;;;;7.78;3.65;;;;;;;5.83;47.35;94567.41;4991399;28;20040;-95
2023/04/12 02:18:44;;;;;;;6.50;2.88;;;;;;;5.59;47.68;94569.16;5015132;28;20068;-95
2023/04/12 02:21:10;;;;;;;7.53;2.92;;;;;;;5.55;48.50;94556.47;5025642;28;20044;-95
2023/04/12 02:23:38;;;;;;;6.95;3.55;;;;;;;5.74;48.39;94556.03;4995797;28;20590;-95
2023/04/12 02:26:13;;;;;;;8.23;3.22;;;;;;;5.33;49.33;94553.59;5011426;28;20017;-95
2023/04/12 02:28:43;;;;;;;6.75;2.45;;;;;;;5.66;48.18;94534.97;5038271;28;20067;-95
2023/04/12 02:31:09;;;;;;;7.80;4.68;;;;;;;5.69;48.68;94529.34;5002665;28;20047;-95
2023/04/12 02:33:35;;;;;;;8.35;3.85;;;;;;;5.43;49.19;94525.19;5028341;28;20204;-94
2023/04/12 02:36:03;;;;;;;6.47;2.50;;;;;;;5.73;49.09;94525.34;4990860;28;20120;-94
2023/04/12 02:38:29;;;;;;;6.57;2.42;;;;;;;3.87;53.89;94527.88;4975104;28;20038;-95
2023/04/12 02:40:55;;;;;;;8.35;2.80;;;;;;;4.94;51.35;94512.97;4988852;28;20370;-94
2023/04/12 02:43:20;;;;;;;6.95;2.78;;;;;;;4.57;51.78;94504.66;4989734;28;20042;-94
2023/04/12 02:45:46;;;;;;;7.47;3.90;;;;;;;5.26;49.71;94498.03;4970878;28;20417;-94
2023/04/12 02:48:12;;;;;;;8.18;3.00;;;;;;;5.42;49.19;94493.66;4971467;28;20159;-94
2023/04/12 02:50:37;;;;;;;7.45;2.97;;;;;;;4.01;53.36;94489.56;4973266;28;20048;-94
2023/04/12 02:53:03;;;;;;;7.47;3.70;;;;;;;4.71;51.13;94496.06;4991363;28;20036;-95
2023/04/12 02:55:29;;;;;;;5.28;2.80;;;;;;;5.16;50.23;94482.41;4970372;28;20037;-94
2023/04/12 02:57:56;;;;;;;6.80;2.13;;;;;;;5.00;51.15;94471.91;4971605;28;20094;-94
2023/04/12 03:00:21;;;;;;;8.55;4.55;;;;;;;5.05;50.39;94466.94;4968655;28;20126;-94
2023/04/12 03:02:50;;;;;;;2.70;1.67;;;;;;;4.57;52.81;94467.75;4984438;28;20157;-95
2023/04/12 03:05:16;;;;;;;6.60;2.38;;;;;;;4.73;51.34;94464.22;4970304;28;20026;-94
2023/04/12 03:07:42;;;;;;;5.55;2.67;;;;;;;4.89;51.08;94458.09;4968518;28;20163;-94
2023/04/12 03:10:10;;;;;;;4.75;2.40;;;;;;;5.26;50.68;94454.97;4969979;28;20555;-95
2023/04/12 03:12:35;;;;;;;5.78;3.67;;;;;;;4.97;50.58;94441.41;4985163;28;20048;-95
2023/04/12 03:15:01;;;;;;;5.47;2.28;;;;;;;3.73;53.85;94455.63;4985053;28;20034;-94
2023/04/12 03:17:26;;;;;;;7.78;2.70;;;;;;;4.13;54.12;94451.34;4968173;28;20712;-94
2023/04/12 03:19:52;;;;;;;4.70;2.30;;;;;;;4.97;52.19;94446.69;4970002;28;20052;-93
2023/04/12 03:22:17;;;;;;;5.63;2.20;;;;;;;4.94;51.93;94436.47;4981970;28;20120;-93
2023/04/12 03:24:44;;;;;;;4.88;2.63;;;;;;;5.12;51.54;94424.88;4969157;28;20029;-94
2023/04/12 03:27:10;;;;;;;5.18;2.75;;;;;;;5.48;50.42;94421.72;4968721;28;20498;-94
2023/04/12 03:29:35;;;;;;;6.25;2.67;;;;;;;4.59;51.04;94413.03;4968392;28;20111;-94
2023/04/12 03:32:01;;;;;;;6.47;2.33;;;;;;;4.01;53.64;94413.19;5001551;28;20033;-94
2023/04/12 03:34:26;;;;;;;5.28;2.20;;;;;;;4.92;51.84;94402.34;4967450;28;20410;-94
2023/04/12 03:36:53;;;;;;;5.30;2.40;;;;;;;5.07;51.80;94407.75;4968962;28;20022;-94
2023/04/12 03:39:18;;;;;;;3.85;2.05;;;;;;;4.43;53.20;94398.09;4968283;28;20887;-94
2023/04/12 03:41:47;;;;;;;5.05;2.58;;;;;;;4.11;53.84;94391.94;4968071;28;20052;-93
2023/04/12 03:44:13;;;;;;;5.43;2.95;;;;;;;4.69;52.82;94379.38;4968153;28;20052;-93
2023/04/12 03:46:38;;;;;;;6.50;1.92;;;;;;;4.16;53.53;94377.25;4967125;28;20040;-94
2023/04/12 03:49:03;;;;;;;6.10;3.42;;;;;;;3.94;54.55;94366.44;4968939;28;20053;-93
2023/04/12 03:51:29;;;;;;;2.10;1.52;;;;;;;4.92;52.57;94354.06;4967947;28;20719;-93
2023/04/12 03:53:55;;;;;;;4.28;2.67;;;;;;;4.37;52.92;94356.59;4984220;28;20064;-93
2023/04/12 03:56:20;;;;;;;4.25;2.63;;;;;;;4.67;52.73;94341.84;4968832;28;20076;-93
2023/04/12 03:58:46;;;;;;;5.35;3.40;;;;;;;4.72;50.32;94343.94;4983045;28;20453;-93
2023/04/12 04:01:12;;;;;;;4.70;2.47;;;;;;;5.02;51.35;94343.28;4967415;28;20089;-93
2023/04/12 04:03:39;;;;;;;4.15;2.05;;;;;;;4.98;51.41;94327.00;4984021;28;20038;-92
2023/04/12 04:06:06;;;;;;;3.70;2.40;;;;;;;4.50;52.82;94330.53;4968349;28;20084;-94
2023/04/12 04:08:31;;;;;;;2.28;1.60;;;;;;;4.14;54.45;94331.81;4984611;28;20221;-93
2023/04/12 04:10:57;;;;;;;3.25;2.08;;;;;;;3.98;54.49;94326.59;4968267;28;20037;-94
2023/04/12 04:13:22;;;;;;;3.97;2.58;;;;;;;4.34;52.59;94320.88;4984920;28;20120;-94
2023/04/12 04:15:50;;;;;;;3.05;1.40;;;;;;;4.81;52.91;94313.06;4984511;28;20592;-93
2023/04/12 04:18:16;;;;;;;2.42;1.48;;;;;;;4.64;52.93;94310.53;4983935;28;20461;-93
2023/04/12 04:20:41;;;;;;;2.78;1.80;;;;;;;4.84;52.01;94310.09;4969118;28;20098;-93
2023/04/12 04:23:09;;;;;;;2.53;1.45;;;;;;;4.52;53.41;94301.38;4967639;28;20072;-94
2023/04/12 04:25:38;;;;;;;2.33;1.70;;;;;;;4.89;51.94;94294.56;4999804;28;20128;-93
2023/04/12 04:28:05;;;;;;;2.90;2.22;;;;;;;5.14;51.33;94294.41;4966402;28;20059;-93
2023/04/12 04:30:32;;;;;;;2.75;2.25;;;;;;;4.61;52.44;94297.69;4983899;28;20065;-94
2023/04/12 04:32:58;;;;;;;2.75;2.25;;;;;;;5.01;51.08;94289.72;4969322;28;20184;-93
2023/04/12 04:35:23;;;;;;;2.63;1.80;;;;;;;5.07;51.74;94282.94;4968644;28;20046;-93
2023/04/12 04:37:51;;;;;;;4.43;1.73;;;;;;;4.98;50.70;94274.22;4968382;28;20139;-94
2023/04/12 04:40:18;;;;;;;4.20;2.30;;;;;;;4.59;52.11;94278.56;4969224;28;20053;-93
2023/04/12 04:42:45;;;;;;;2.58;1.98;;;;;;;4.54;52.90;94273.00;4968195;28;20410;-94
2023/04/12 04:45:13;;;;;;;3.05;2.40;;;;;;;4.79;52.20;94271.06;4969088;28;20045;-93
2023/04/12 04:47:39;;;;;;;2.08;1.60;;;;;;;4.79;52.82;94264.94;4967829;28;20038;-94
2023/04/12 04:50:06;;;;;;;2.65;1.83;;;;;;;4.65;53.08;94259.44;4983532;28;20040;-93
2023/04/12 04:52:31;;;;;;;2.90;1.33;;;;;;;4.60;53.13;94250.41;4983790;28;20109;-94
2023/04/12 04:54:57;;;;;;;1.70;1.60;;;;;;;4.78;52.54;94244.84;4999549;28;20042;-93
2023/04/12 04:57:23;;;;;;;1.38;1.23;;;;;;;4.99;51.83;94240.78;4967067;28;20137;-93
2023/04/12 04:59:49;;;;;;;2.42;1.25;;;;;;;5.43;51.23;94236.63;4967221;28;20044;-93
2023/04/12 05:02:15;;;;;;;2.75;1.90;;;;;;;5.05;51.39;94217.13;4981680;28;20402;-94
2023/04/12 05:04:41;;;;;;;1.88;1.20;;;;;;;4.84;52.16;94215.16;4983747;28;20534;-93
2023/04/12 05:07:06;;;;;;;2.30;2.10;;;;;;;5.02;51.76;94216.66;4983138;28;20121;-94
2023/04/12 05:09:31;;;;;;;1.50;1.40;;;;;;;4.97;52.59;94209.28;4969558;28;20063;-93
2023/04/12 05:11:57;;;;;;;1.83;1.55;;;;;;;4.86;52.62;94194.69;4970382;28;20026;-94
2023/04/12 05:14:22;;;;;;;1.88;1.40;;;;;;;5.01;52.46;94193.91;4986441;28;20042;-93
2023/04/12 05:16:48;;;;;;;1.70;1.40;;;;;;;5.25;51.45;94192.09;4969809;28;20151;-92
2023/04/12 05:19:13;;;;;;;2.33;2.13;;;;;;;5.30;51.74;94187.06;4970885;28;20038;-93
2023/04/12 05:21:39;;;;;;;2.30;2.10;;;;;;;5.18;51.25;94179.63;4985289;28;20416;-94
2023/04/12 05:24:04;;;;;;;3.25;2.25;;;;;;;5.12;50.21;94182.97;4985863;28;20399;-93
2023/04/12 05:26:33;;;;;;;3.45;2.42;;;;;;;4.98;51.51;94176.63;4986026;28;20445;-93
2023/04/12 05:29:00;;;;;;;1.48;1.38;;;;;;;4.53;52.97;94179.94;4969891;28;20022;-93
2023/04/12 05:31:26;;;;;;;1.58;1.48;;;;;;;4.63;52.21;94170.97;4967561;28;20572;-93
2023/04/12 05:33:53;;;;;;;1.60;1.38;;;;;;;4.07;54.97;94172.81;4985675;28;20103;-93
2023/04/12 05:36:21;;;;;;;1.00;1.00;;;;;;;4.55;53.06;94167.41;4984812;28;20044;-94
2023/04/12 05:38:47;;;;;;;2.78;2.15;;;;;;;4.52;52.86;94157.22;4964436;28;20052;-93
2023/04/12 05:41:12;;;;;;;4.07;2.83;;;;;;;4.67;51.39;94157.28;4970725;28;20033;-94
2023/04/12 05:43:38;;;;;;;3.70;2.40;;;;;;;4.74;53.03;94164.47;4969565;28;20042;-93
2023/04/12 05:46:06;;;;;;;1.48;1.38;;;;;;;4.68;52.36;94163.34;4968909;28;20037;-93
2023/04/12 05:48:32;;;;;;;1.38;1.27;;;;;;;5.12;52.26;94153.13;4985867;28;20559;-93
2023/04/12 05:50:57;;;;;;;1.30;1.20;;;;;;;4.76;52.83;94138.75;4967706;28;20041;-93
2023/04/12 05:53:22;;;;;;;2.72;2.08;;;;;;;5.02;52.55;94141.00;4985639;28;20030;-93
2023/04/12 05:55:48;;;;;;;2.60;1.20;;;;;;;5.10;52.42;94150.66;4970020;28;20029;-93
2023/04/12 05:58:13;;;;;;;2.25;1.52;;;;;;;4.95;52.27;94140.06;4969003;28;20889;-94
2023/04/12 06:00:42;;;;;;;4.07;2.50;;;;;;;5.10;52.38;94140.09;4967828;28;20057;-93
2023/04/12 06:03:09;;;;;;;2.30;1.65;;;;;;;4.77;52.48;94130.66;4986811;28;20413;-92
2023/04/12 06:05:34;;;;;;;7.28;4.97;;;;;;;4.54;53.50;94130.69;4968818;28;20088;-92
2023/04/12 06:08:00;;;;;;;1.48;1.25;;;;;;;4.44;54.33;94137.03;4969288;28;20495;-93
2023/04/12 06:10:26;;;;;;;12.07;8.55;;;;;;;4.39;53.18;94138.53;4968306;28;20034;-93
2023/04/12 06:12:52;;;;;;;2.90;2.58;;;;;;;4.62;53.80;94141.16;4984951;28;20034;-93
2023/04/12 06:15:20;;;;;;;7.43;4.88;;;;;;;4.53;53.59;94126.41;4999370;28;20436;-93
2023/04/12 06:17:46;;;;;;;12.25;7.57;;;;;;;3.42;57.45;94128.13;4970684;28;20050;-92
2023/04/12 06:20:12;;;;;;;7.78;3.85;;;;;;;4.34;54.62;94123.25;4999141;28;20041;-93
2023/04/12 06:22:37;;;;;;;7.85;5.57;;;;;;;4.66;53.90;94116.06;4965533;28;20044;-93
2023/04/12 06:25:03;;;;;;;10.35;7.30;;;;;;;4.96;52.63;94112.69;4985109;28;20511;-93
2023/04/12 06:27:29;;;;;;;13.90;9.57;;;;;;;4.40;54.42;94104.09;4998206;28;20041;-93
2023/04/12 06:29:54;;;;;;;4.97;3.38;;;;;;;4.67;54.21;94112.47;4985655;28;20198;-92
2023/04/12 06:32:20;;;;;;;3.35;2.88;;;;;;;3.67;58.09;94110.47;4966630;28;20084;-93
2023/04/12 06:34:45;;;;;;;10.82;6.20;;;;;;;4.17;56.66;94090.91;4998221;28;20137;-93
2023/04/12 06:37:11;;;;;;;23.50;16.13;;;;;;;4.52;53.88;94095.78;5016681;28;20034;-92
2023/04/12 06:39:36;;;;;;;16.38;9.93;;;;;;;4.75;54.83;94093.09;5001577;28;20532;-92
2023/04/12 06:42:02;;;;;;;13.20;9.02;;;;;;;4.93;52.23;94086.69;4968530;28;20065;-93
2023/04/12 06:44:27;;;;;;;4.80;2.60;;;;;;;5.16;53.42;94091.06;4983784;28;20613;-93
2023/04/12 06:46:53;;;;;;;13.63;9.20;;;;;;;5.07;53.56;94087.72;4982498;28;20520;-93
2023/04/12 06:49:18;;;;;;;8.80;4.85;;;;;;;4.42;55.46;94075.75;4985868;28;20033;-93
2023/04/12 06:51:43;;;;;;;8.27;5.22;;;;;;;4.84;54.19;94072.75;4983941;28;20527;-92
2023/04/12 06:54:09;;;;;;;6.30;4.18;;;;;;;5.04;53.35;94065.13;4968737;28;20145;-93
2023/04/12 06:56:38;;;;;;;12.65;8.77;;;;;;;5.31;53.93;94060.22;4985280;28;20618;-94
2023/04/12 06:59:04;;;;;;;21.25;14.45;;;;;;;5.31;53.18;94056.78;4984833;28;20107;-93
2023/04/12 07:01:29;;;;;;;13.65;8.70;;;;;;;5.45;53.61;94055.13;5000393;28;20085;-93
2023/04/12 07:03:55;;;;;;;1.83;1.10;;;;;;;5.14;54.30;94056.97;4969144;28;20033;-92
2023/04/12 07:06:20;;;;;;;12.45;8.85;;;;;;;5.32;53.90;94055.78;4968429;28;20394;-92
2023/04/12 07:08:47;;;;;;;18.48;12.10;;;;;;;5.45;51.47;94037.47;4967970;28;20038;-93
2023/04/12 07:11:12;;;;;;;2.25;1.95;;;;;;;5.26;53.79;94040.66;4997742;28;20075;-92
2023/04/12 07:13:38;;;;;;;0.93;0.93;;;;;;;4.06;56.50;94039.47;4984087;28;20042;-92
2023/04/12 07:16:04;;;;;;;2.17;1.98;;;;;;;4.65;55.90;94031.88;4967551;28;20156;-92
2023/04/12 07:18:32;;;;;;;4.85;1.20;;;;;;;4.09;57.95;94033.03;4983792;28;20036;-92
2023/04/12 07:20:57;;;;;;;5.07;3.85;;;;;;;4.75;55.96;94023.72;4977673;28;20500;-92
2023/04/12 07:23:26;;;;;;;3.10;2.58;;;;;;;5.11;53.76;94012.50;4996024;28;20092;-92
2023/04/12 07:25:52;;;;;;;0.90;0.90;;;;;;;5.46;54.25;94009.25;4962618;28;20319;-92
2023/04/12 07:28:18;;;;;;;10.48;6.25;;;;;;;5.28;54.34;94005.19;4969708;28;20322;-91
2023/04/12 07:30:43;;;;;;;2.00;1.40;;;;;;;5.73;52.82;93996.34;5001331;28;20038;-92
2023/04/12 07:33:09;;;;;;;4.50;3.33;;;;;;;5.47;54.00;94003.78;4985578;28;20026;-92
2023/04/12 07:35:34;;;;;;;10.85;7.22;;;;;;;5.57;53.52;93997.38;4965594;28;20502;-92
2023/04/12 07:38:00;;;;;;;6.60;5.20;;;;;;;5.68;52.93;93999.53;4982954;28;20042;-91
2023/04/12 07:40:25;;;;;;;1.85;1.40;;;;;;;5.60;53.26;93987.28;4983180;28;20306;-90
2023/04/12 07:42:51;;;;;;;1.40;1.30;;;;;;;5.90;53.03;93991.63;4963982;28;20363;-91
2023/04/12 07:45:16;;;;;;;8.98;6.43;;;;;;;6.29;51.71;93978.94;4983742;28;20037;-91
2023/04/12 07:47:41;;;;;;;1.42;1.20;;;;;;;5.65;53.14;93984.09;4986017;28;20034;-91
2023/04/12 07:50:07;;;;;;;5.50;4.22;;;;;;;6.01;52.19;93981.59;4961741;28;20046;-92
2023/04/12 07:52:33;;;;;;;6.25;3.72;;;;;;;5.84;52.40;93973.88;4981483;28;20083;-91
2023/04/12 07:54:58;;;;;;;18.77;13.60;;;;;;;5.34;53.60;93979.91;4964917;28;20050;-91
2023/04/12 07:57:25;;;;;;;9.02;6.93;;;;;;;5.93;52.57;93974.59;4978219;28;20030;-93
2023/04/12 07:59:50;;;;;;;5.10;3.83;;;;;;;5.44;53.38;93963.75;4980712;28;20042;-93
2023/04/12 08:02:23;;;;;;;3.35;2.28;;;;;;;4.73;55.24;93968.53;4998378;28;20074;-93
2023/04/12 08:04:55;;;;;;;16.23;10.93;;;;;;;4.87;55.60;93963.44;4979468;28;20111;-93
2023/04/12 08:07:23;;;;;;;1.30;0.50;;;;;;;5.21;54.61;93952.31;4978523;28;20052;-92
2023/04/12 08:09:48;;;;;;;1.88;1.00;;;;;;;5.19;54.23;93959.63;4980192;28;20048;-92
2023/04/12 08:12:14;;;;;;;3.40;2.72;;;;;;;5.93;52.67;93949.00;4964526;28;20038;-92
2023/04/12 08:14:39;;;;;;;6.40;4.97;;;;;;;5.94;52.36;93945.34;4964014;28;20049;-92
2023/04/12 08:17:05;;;;;;;1.42;0.80;;;;;;;4.06;57.38;93948.09;4966563;28;20030;-91
2023/04/12 08:19:30;;;;;;;11.60;8.07;;;;;;;5.55;54.26;93934.19;4964261;28;20034;-92
2023/04/12 08:21:56;;;;;;;15.95;11.40;;;;;;;5.42;53.53;93931.44;4964738;28;20048;-94
2023/04/12 08:24:21;;;;;;;1.05;0.93;;;;;;;4.87;55.46;93934.44;4982343;28;20042;-92
2023/04/12 08:26:47;;;;;;;5.25;4.18;;;;;;;5.92;53.10;93922.78;4966556;28;20607;-92
2023/04/12 08:29:12;;;;;;;3.95;3.03;;;;;;;6.05;52.82;93924.72;4982492;28;20033;-92
2023/04/12 08:31:38;;;;;;;1.88;1.40;;;;;;;6.25;52.16;93923.03;4964661;28;20060;-91
2023/04/12 08:34:03;;;;;;;13.43;9.77;;;;;;;6.27;51.71;93924.66;4966538;28;20625;-93
2023/04/12 08:36:29;;;;;;;2.15;1.88;;;;;;;6.67;52.01;93922.31;4981032;28;20026;-92
2023/04/12 08:39:00;;;;;;;13.52;10.63;;;;;;;6.74;50.18;93909.13;4983664;28;20461;-93
2023/04/12 08:41:26;;;;;;;1.95;1.77;;;;;;;6.96;50.71;93903.69;4980060;28;20038;-93
2023/04/12 08:43:51;;;;;;;9.13;6.75;;;;;;;6.90;50.19;93905.31;4966727;28;20067;-93
2023/04/12 08:46:17;;;;;;;9.10;5.03;;;;;;;6.06;52.26;93900.72;4965877;28;20073;-91
2023/04/12 08:48:47;;;;;;;6.88;4.15;;;;;;;6.60;50.70;93897.66;4966817;28;20216;-92
2023/04/12 08:51:14;;;;;;;2.63;1.80;;;;;;;6.67;51.62;93895.88;4963025;28;20596;-92
2023/04/12 08:53:42;;;;;;;8.00;5.50;;;;;;;6.52;50.50;93881.94;4966845;28;20161;-92
2023/04/12 08:56:10;;;;;;;3.17;1.40;;;;;;;6.03;53.65;93895.00;4982305;28;20030;-92
2023/04/12 08:58:36;;;;;;;1.05;0.98;;;;;;;6.02;53.78;93893.38;4965980;28;20392;-91
2023/04/12 09:01:01;;;;;;;8.10;5.40;;;;;;;6.59;51.62;93888.06;4982194;28;20141;-93
2023/04/12 09:03:28;;;;;;;23.02;14.57;;;;;;;6.49;51.60;93885.78;4982549;28;20068;-93
2023/04/12 09:05:54;;;;;;;12.02;6.43;;;;;;;6.65;50.02;93889.94;4982490;28;20169;-92
2023/04/12 09:08:19;;;;;;;17.42;12.13;;;;;;;6.75;49.51;93889.59;4983352;28;20033;-94
2023/04/12 09:10:45;;;;;;;14.93;8.07;;;;;;;5.59;54.65;93884.50;4982244;28;20046;-93
2023/04/12 09:13:13;;;;;;;14.98;6.68;;;;;;;4.48;57.28;93883.63;5010773;28;20044;-95
2023/04/12 09:15:48;;;;;;;3.45;2.50;;;;;;;6.20;53.37;93872.59;4988131;28;20033;-94
2023/04/12 09:18:13;;;;;;;0.93;0.90;;;;;;;5.27;55.77;93870.81;4971399;28;20072;-94
2023/04/12 09:20:39;;;;;;;17.85;13.90;;;;;;;5.00;56.94;93867.84;4967437;28;20033;-95
2023/04/12 09:23:21;;;;;;;8.75;5.63;;;;;;;5.74;54.58;93865.94;4965991;28;20038;-94
2023/04/12 09:25:50;;;;;;;1.23;1.20;;;;;;;6.44;53.08;93859.91;4994357;28;20046;-94
2023/04/12 09:28:25;;;;;;;10.10;6.28;;;;;;;6.18;53.99;93856.09;4986101;28;20041;-92
2023/04/12 09:30:55;;;;;;;16.15;12.20;;;;;;;6.79;52.03;93855.59;4982012;28;20537;-93
2023/04/12 09:33:22;;;;;;;2.63;2.30;;;;;;;6.46;53.80;93857.09;4983511;28;20080;-93
2023/04/12 09:35:47;;;;;;;17.58;11.52;;;;;;;6.92;51.79;93846.91;4982684;28;20077;-92
2023/04/12 09:38:13;;;;;;;3.67;2.90;;;;;;;6.75;52.52;93849.91;4966462;28;20034;-93
2023/04/12 09:40:38;;;;;;;17.48;13.25;;;;;;;6.83;49.69;93844.44;4967468;28;20096;-92
2023/04/12 09:43:04;;;;;;;26.95;19.27;;;;;;;6.97;50.34;93845.31;4982386;28;20096;-93
2023/04/12 09:45:39;;;;;;;16.83;12.60;;;;;;;7.41;49.34;93837.03;4999223;28;20083;-92
2023/04/12 09:48:05;;;;;;;21.52;15.13;;;;;;;6.08;53.41;93850.31;4997469;28;20188;-94
2023/04/12 09:50:33;;;;;;;22.70;16.58;;;;;;;6.28;52.16;93839.88;4982581;28;20432;-92
2023/04/12 09:53:02;;;;;;;25.40;17.48;;;;;;;6.55;52.26;93833.94;4983390;28;20392;-92
2023/04/12 09:55:30;;;;;;;8.07;5.78;;;;;;;7.07;51.66;93825.59;4996349;28;20583;-94
2023/04/12 09:57:56;;;;;;;0.90;0.90;;;;;;;6.22;53.48;93827.44;4969056;28;20102;-93
2023/04/12 10:00:22;;;;;;;7.28;4.70;;;;;;;6.20;53.83;93848.81;4986282;28;20069;-93
2023/04/12 10:02:51;;;;;;;11.88;4.68;;;;;;;6.63;53.42;93829.31;4983502;28;20135;-92
2023/04/12 10:05:18;;;;;;;3.38;1.20;;;;;;;6.60;53.08;93819.13;4967655;28;20566;-93
2023/04/12 10:07:44;;;;;;;4.53;3.45;;;;;;;6.32;54.64;93829.75;4968309;28;20047;-93
2023/04/12 10:10:13;;;;;;;15.30;10.32;;;;;;;6.53;52.76;93818.28;4986227;28;20038;-92
2023/04/12 10:12:40;;;;;;;14.02;9.68;;;;;;;7.06;51.02;93818.66;4984708;28;20022;-94
2023/04/12 10:15:11;;;;;;;4.65;2.05;;;;;;;6.94;51.99;93816.59;4968365;28;20083;-93
2023/04/12 10:17:38;;;;;;;9.20;6.00;;;;;;;7.27;50.30;93815.03;4985538;28;20029;-93
2023/04/12 10:20:04;;;;;;;28.63;22.35;;;;;;;7.68;48.01;93815.06;4970192;28;20454;-93
2023/04/12 10:22:29;;;;;;;2.15;0.77;;;;;;;7.24;51.86;93815.47;4985638;28;20041;-93
2023/04/12 10:24:55;;;;;;;0.70;0.70;;;;;;;5.63;57.30;93832.94;4985126;28;20038;-93
2023/04/12 10:27:25;;;;;;;1.80;1.30;;;;;;;6.09;56.36;93809.72;4986392;28;20054;-93
2023/04/12 10:29:50;;;;;;;4.30;3.15;;;;;;;7.10;53.84;93807.47;4967962;28;20137;-94
2023/04/12 10:32:23;;;;;;;7.90;5.65;;;;;;;7.71;51.79;93804.06;4985393;28;20026;-93
2023/04/12 10:34:52;;;;;;;13.77;10.95;;;;;;;7.96;50.43;93803.47;4969061;28;20046;-93
2023/04/12 10:37:18;;;;;;;23.05;12.88;;;;;;;7.40;51.18;93807.13;4968424;28;20101;-93
2023/04/12 10:39:46;;;;;;;2.28;1.95;;;;;;;7.37;52.16;93810.16;4989555;28;20045;-92
2023/04/12 10:42:27;;;;;;;30.55;24.67;;;;;;;7.57;51.26;93797.94;4973823;28;20029;-93
2023/04/12 10:45:16;;;;;;;2.35;2.15;;;;;;;7.77;51.05;93806.75;4991710;28;20025;-94
2023/04/12 10:47:48;;;;;;;9.20;1.70;;;;;;;7.89;51.00;93795.53;4989192;28;20337;-93
2023/04/12 10:50:25;;;;;;;5.97;1.75;;;;;;;8.14;50.07;93793.03;5009514;28;20058;-94
2023/04/12 10:53:11;;;;;;;6.45;3.63;;;;;;;8.01;51.22;93793.06;5005598;28;20455;-93
2023/04/12 10:55:44;;;;;;;12.38;9.75;;;;;;;8.02;51.04;93784.91;5002680;28;20042;-94
2023/04/12 10:58:10;;;;;;;18.88;13.68;;;;;;;8.33;50.06;93795.03;4986056;28;20058;-95
2023/04/12 11:00:57;;;;;;;2.67;2.45;;;;;;;8.16;48.96;93788.34;5010677;28;20025;-96
2023/04/12 11:03:24;;;;;;;32.50;25.73;;;;;;;7.56;50.25;93793.69;5014809;28;20018;-95
2023/04/12 11:06:03;;;;;;;23.00;18.13;;;;;;;8.08;47.47;93791.22;5000966;28;20061;-94
2023/04/12 11:08:43;;;;;;;15.73;12.73;;;;;;;8.62;48.56;93790.22;4991250;28;20037;-96
2023/04/12 11:11:19;;;;;;;22.98;17.27;;;;;;;8.71;47.58;93786.31;4998010;28;20110;-96
2023/04/12 11:13:47;;;;;;;32.40;22.23;;;;;;;8.95;47.26;93787.44;5030356;28;20072;-96
2023/04/12 11:16:55;;;;;;;9.38;6.72;;;;;;;8.76;49.62;93785.66;4999949;28;20034;-96
2023/04/12 11:19:20;;;;;;;20.17;12.43;;;;;;;9.31;47.86;93790.50;5030652;22;20053;-68
2023/04/12 11:21:45;;;;;;;0.70;0.70;;;;;;;9.39;48.41;93780.66;5016143;28;20071;-68
2023/04/12 11:24:11;;;;;;;0.80;0.80;;;;;;;6.99;53.36;93795.66;5018887;28;20026;-68
2023/04/12 11:26:36;;;;;;;35.10;22.65;;;;;;;8.09;48.54;93781.44;5019475;28;20262;-69
2023/04/12 11:29:06;;;;;;;5.25;3.55;;;;;;;9.09;49.37;93784.72;5003582;28;20608;-69
2023/04/12 11:31:32;;;;;;;0.65;0.65;;;;;;;9.26;49.35;93785.03;5019891;28;20033;-67
2023/04/12 11:33:58;;;;;;;28.75;15.60;;;;;;;8.57;49.58;93781.06;5022537;28;20106;-67
2023/04/12 11:36:25;;;;;;;10.63;5.80;;;;;;;8.39;50.18;93783.56;5022864;28;20033;-68
2023/04/12 11:38:50;;;;;;;37.15;25.00;;;;;;;8.85;47.64;93770.31;5017490;28;20065;-69
2023/04/12 11:41:17;;;;;;;13.07;8.35;;;;;;;8.51;48.03;93771.31;5018991;28;20025;-68